Time;durP1;ratioP1;P1;durP2;ratioP2;P2;SDS_P1;SDS_P2;PMS_P1;PMS_P2;Temp;Humidity;BMP_temperature;BMP_pressure;BME280_temperature;BME280_humidity;BME280_pressure;Samples;Min_cycle;Max_cycle;Signal;HPM_P1;HPM_P2
2024/01/18 00:01:40;;;;;;;32.08;16.88;;;-0.50;99.90;;;;;;5016237;28;20097;-89
2024/01/18 00:04:05;;;;;;;31.40;16.55;;;-0.50;99.90;;;;;;5015615;28;20029;-90
2024/01/18 00:06:34;;;;;;;34.38;17.38;;;-0.50;99.90;;;;;;5014304;28;20037;-90
2024/01/18 00:09:00;;;;;;;33.38;17.25;;;-0.50;99.90;;;;;;5014437;28;20069;-90
2024/01/18 00:11:27;;;;;;;28.20;16.85;;;-0.50;99.90;;;;;;5007275;28;20065;-90
2024/01/18 00:13:53;;;;;;;27.70;17.00;;;-0.50;99.90;;;;;;5002248;28;20033;-89
2024/01/18 00:16:18;;;;;;;31.58;18.33;;;-0.50;99.90;;;;;;4996981;28;20034;-90
2024/01/18 00:18:44;;;;;;;29.52;16.60;;;-0.50;99.90;;;;;;4998113;28;20481;-89
2024/01/18 00:21:09;;;;;;;36.28;18.48;;;-0.50;99.90;;;;;;5015546;28;20058;-90
2024/01/18 00:23:35;;;;;;;33.55;18.13;;;-0.50;99.90;;;;;;4999395;28;20026;-90
2024/01/18 00:26:00;;;;;;;29.23;17.50;;;-0.50;99.90;;;;;;5003476;28;20104;-90
2024/01/18 00:28:26;;;;;;;31.60;18.33;;;-0.50;99.90;;;;;;5004109;28;20030;-90
2024/01/18 00:30:52;;;;;;;31.35;18.23;;;-0.60;99.90;;;;;;5015041;28;20025;-89
2024/01/18 00:33:17;;;;;;;28.50;16.67;;;-0.60;99.90;;;;;;5014132;28;20048;-89
2024/01/18 00:35:43;;;;;;;32.15;16.60;;;-0.60;99.90;;;;;;5015002;28;20393;-90
2024/01/18 00:38:08;;;;;;;31.08;16.35;;;-0.60;99.90;;;;;;5010866;28;20121;-90
2024/01/18 00:40:34;;;;;;;30.65;17.38;;;-0.60;99.90;;;;;;5011671;28;20105;-90
2024/01/18 00:43:01;;;;;;;24.88;15.77;;;-0.70;99.90;;;;;;5014969;28;20042;-90
2024/01/18 00:45:26;;;;;;;31.38;16.60;;;-0.70;99.90;;;;;;5014285;28;20018;-89
2024/01/18 00:47:52;;;;;;;29.70;17.98;;;-0.70;99.90;;;;;;5009481;28;20393;-89
2024/01/18 00:50:18;;;;;;;31.77;17.05;;;-0.80;99.90;;;;;;5010693;28;20030;-91
2024/01/18 00:52:43;;;;;;;28.85;15.77;;;-0.80;99.90;;;;;;5014810;28;20037;-90
2024/01/18 00:55:10;;;;;;;25.20;14.57;;;-0.80;99.90;;;;;;5014268;28;20030;-90
2024/01/18 00:57:35;;;;;;;28.02;16.25;;;-0.80;99.90;;;;;;5009924;28;20038;-90
2024/01/18 01:00:02;;;;;;;32.45;17.65;;;-0.90;99.90;;;;;;5012575;28;20045;-90
2024/01/18 01:02:28;;;;;;;33.00;19.00;;;-0.90;99.90;;;;;;5014035;28;20029;-90
2024/01/18 01:04:53;;;;;;;32.70;17.95;;;-1.00;99.90;;;;;;5003460;28;20045;-90
2024/01/18 01:07:19;;;;;;;34.53;18.42;;;-1.00;99.90;;;;;;5032089;28;20148;-89
2024/01/18 01:09:44;;;;;;;27.92;17.52;;;-1.00;99.90;;;;;;5008020;28;20029;-90
2024/01/18 01:12:10;;;;;;;32.85;18.38;;;-1.00;99.90;;;;;;5011041;28;20383;-90
2024/01/18 01:14:35;;;;;;;33.13;18.48;;;-1.00;99.90;;;;;;5014720;28;20033;-90
2024/01/18 01:17:01;;;;;;;34.72;20.23;;;-1.00;99.90;;;;;;5014631;28;20037;-90
2024/01/18 01:19:26;;;;;;;37.28;19.25;;;-1.00;99.90;;;;;;5012386;28;20053;-90
2024/01/18 01:21:52;;;;;;;32.47;17.77;;;-1.00;99.90;;;;;;5015392;28;20021;-90
2024/01/18 01:24:17;;;;;;;36.95;18.20;;;-1.10;99.90;;;;;;5015534;28;20076;-90
2024/01/18 01:26:43;;;;;;;32.40;18.42;;;-1.10;99.90;;;;;;5034143;28;20067;-90
2024/01/18 01:29:10;;;;;;;30.45;18.50;;;-1.10;99.90;;;;;;5009800;28;20034;-89
2024/01/18 01:31:36;;;;;;;30.15;17.90;;;-1.10;99.90;;;;;;5009208;28;20030;-90
2024/01/18 01:34:01;;;;;;;34.25;18.40;;;-1.20;99.90;;;;;;5014258;28;20124;-90
2024/01/18 01:36:27;;;;;;;33.05;18.73;;;-1.20;99.90;;;;;;5014350;28;20026;-89
2024/01/18 01:38:52;;;;;;;32.75;19.05;;;-1.20;99.90;;;;;;5010892;28;20053;-90
2024/01/18 01:41:18;;;;;;;27.98;16.98;;;-1.20;99.90;;;;;;5007995;28;20052;-90
2024/01/18 01:43:59;;;;;;;33.25;17.90;;;-1.30;99.90;;;;;;5009876;28;20478;-90
2024/01/18 01:46:29;;;;;;;33.83;18.15;;;-1.30;99.90;;;;;;4994497;28;20036;-89
2024/01/18 01:48:59;;;;;;;30.98;16.42;;;-1.40;99.90;;;;;;5005274;28;20122;-90
2024/01/18 01:51:26;;;;;;;35.85;18.88;;;-1.40;99.90;;;;;;5011586;28;20049;-90
2024/01/18 01:53:53;;;;;;;32.83;19.02;;;-1.40;99.90;;;;;;5002289;28;20026;-90
2024/01/18 01:56:19;;;;;;;32.35;19.05;;;-1.50;99.90;;;;;;4996671;28;20034;-90
2024/01/18 01:58:46;;;;;;;31.40;17.75;;;-1.50;99.90;;;;;;5006182;28;20042;-90
2024/01/18 02:01:12;;;;;;;32.85;18.13;;;-1.50;99.90;;;;;;5014940;28;20040;-89
2024/01/18 02:03:37;;;;;;;36.10;19.05;;;-1.60;99.90;;;;;;5012752;28;20022;-90
2024/01/18 02:06:03;;;;;;;38.15;19.23;;;-1.60;99.90;;;;;;5011716;28;20053;-90
2024/01/18 02:08:29;;;;;;;35.58;18.60;;;-1.60;99.90;;;;;;5010628;28;20036;-90
2024/01/18 02:10:55;;;;;;;35.75;19.90;;;-1.70;99.90;;;;;;5011481;28;20394;-90
2024/01/18 02:13:21;;;;;;;37.58;19.83;;;-1.70;99.90;;;;;;5016130;28;20037;-90
2024/01/18 02:15:47;;;;;;;35.60;19.17;;;-1.70;99.90;;;;;;5016458;28;20026;-91
2024/01/18 02:18:13;;;;;;;32.92;18.45;;;-1.70;99.90;;;;;;5011220;28;20060;-90
2024/01/18 02:20:38;;;;;;;30.10;17.23;;;-1.80;99.90;;;;;;5009415;28;20100;-91
2024/01/18 02:23:06;;;;;;;35.33;20.33;;;-1.80;99.90;;;;;;5006257;28;20032;-91
2024/01/18 02:25:32;;;;;;;36.63;20.30;;;-1.90;99.90;;;;;;5019155;28;20059;-91
2024/01/18 02:27:58;;;;;;;36.92;20.77;;;-1.90;99.90;;;;;;5016204;28;20029;-91
2024/01/18 02:30:24;;;;;;;35.97;19.10;;;-1.90;99.90;;;;;;5010551;28;20029;-90
2024/01/18 02:32:50;;;;;;;36.67;20.40;;;-1.90;99.90;;;;;;5019187;28;20037;-90
2024/01/18 02:35:16;;;;;;;38.20;20.38;;;-2.00;99.90;;;;;;5016494;28;20473;-91
2024/01/18 02:37:42;;;;;;;39.10;21.05;;;-2.00;99.90;;;;;;5007960;28;20026;-91
2024/01/18 02:40:08;;;;;;;43.70;21.58;;;-2.00;99.90;;;;;;5004670;28;20088;-91
2024/01/18 02:42:34;;;;;;;41.33;21.30;;;-2.00;99.90;;;;;;5010005;28;20153;-91
2024/01/18 02:45:02;;;;;;;37.22;20.40;;;-2.00;99.90;;;;;;5008676;28;20471;-90
2024/01/18 02:47:28;;;;;;;36.80;20.05;;;-2.00;99.90;;;;;;5009131;28;20460;-91
2024/01/18 02:49:55;;;;;;;36.75;20.40;;;-2.00;99.90;;;;;;4993916;28;20100;-92
2024/01/18 02:52:21;;;;;;;45.65;22.25;;;-2.00;99.90;;;;;;5016458;28;20056;-91
2024/01/18 02:54:46;;;;;;;36.92;21.10;;;-2.00;99.90;;;;;;5025804;28;20025;-90
2024/01/18 02:57:12;;;;;;;34.65;20.30;;;-2.00;99.90;;;;;;5004096;28;20037;-91
2024/01/18 02:59:38;;;;;;;32.22;18.90;;;-2.00;99.90;;;;;;5010534;28;20063;-90
2024/01/18 03:02:03;;;;;;;34.85;19.20;;;-2.00;99.90;;;;;;5005342;28;20035;-91
2024/01/18 03:04:29;;;;;;;36.17;18.45;;;-2.00;99.90;;;;;;5003153;28;20026;-91
2024/01/18 03:06:54;;;;;;;39.67;19.77;;;-2.00;99.90;;;;;;4992397;28;20030;-91
2024/01/18 03:09:20;;;;;;;34.60;20.05;;;-2.10;99.90;;;;;;5006009;28;20057;-91
2024/01/18 03:11:46;;;;;;;38.22;17.88;;;-2.10;99.90;;;;;;5009329;28;20037;-91
2024/01/18 03:14:11;;;;;;;31.13;16.92;;;-2.10;99.90;;;;;;5009951;28;20030;-91
2024/01/18 03:16:42;;;;;;;38.00;17.98;;;-2.10;99.90;;;;;;5015145;28;20052;-91
2024/01/18 03:19:10;;;;;;;31.73;17.92;;;-2.20;99.90;;;;;;5003226;28;20478;-91
2024/01/18 03:21:35;;;;;;;35.30;17.75;;;-2.20;99.90;;;;;;4999765;28;20036;-92
2024/01/18 03:24:01;;;;;;;32.92;18.00;;;-2.30;99.90;;;;;;5006733;28;20128;-92
2024/01/18 03:26:26;;;;;;;29.98;17.33;;;-2.30;99.90;;;;;;5013001;28;20478;-91
2024/01/18 03:28:52;;;;;;;31.75;17.67;;;-2.30;99.90;;;;;;5007452;28;20027;-91
2024/01/18 03:31:17;;;;;;;42.00;18.13;;;-2.30;99.90;;;;;;4996904;28;20034;-91
2024/01/18 03:33:43;;;;;;;31.60;16.92;;;-2.40;99.90;;;;;;5000349;28;20026;-92
2024/01/18 03:36:10;;;;;;;29.98;16.70;;;-2.40;99.90;;;;;;5010281;28;20054;-92
2024/01/18 03:38:35;;;;;;;36.58;17.70;;;-2.50;99.90;;;;;;5010701;28;20065;-92
2024/01/18 03:41:01;;;;;;;35.80;17.25;;;-2.60;99.90;;;;;;5009086;28;20125;-91
2024/01/18 03:43:27;;;;;;;31.60;18.17;;;-2.70;99.90;;;;;;5010169;28;20497;-91
2024/01/18 03:45:52;;;;;;;33.65;16.17;;;-2.70;99.90;;;;;;5003877;28;20022;-91
2024/01/18 03:48:18;;;;;;;38.03;17.48;;;-2.80;99.90;;;;;;5012698;28;20022;-90
2024/01/18 03:50:43;;;;;;;31.20;16.58;;;-2.80;99.90;;;;;;4997686;28;20057;-92
2024/01/18 03:53:09;;;;;;;35.00;18.30;;;-2.80;99.90;;;;;;4993025;28;20039;-92
2024/01/18 03:55:34;;;;;;;36.45;17.20;;;-2.80;99.90;;;;;;5017942;28;20032;-92
2024/01/18 03:58:00;;;;;;;42.65;19.05;;;-2.70;99.90;;;;;;5011515;28;20033;-92
2024/01/18 04:00:26;;;;;;;37.72;19.08;;;-2.70;99.90;;;;;;5008555;28;20022;-92
2024/01/18 04:02:52;;;;;;;40.97;19.10;;;-2.70;99.90;;;;;;5009210;28;20076;-92
2024/01/18 04:05:17;;;;;;;33.17;18.63;;;-2.60;99.90;;;;;;5008825;28;20390;-92
2024/01/18 04:07:43;;;;;;;30.30;16.48;;;-2.60;99.90;;;;;;5012383;28;20030;-93
2024/01/18 04:10:10;;;;;;;32.65;17.20;;;-2.60;99.90;;;;;;5010478;28;20052;-93
2024/01/18 04:12:36;;;;;;;36.15;16.92;;;-2.60;99.90;;;;;;5011797;28;20030;-92
2024/01/18 04:15:02;;;;;;;29.30;16.42;;;-2.60;99.90;;;;;;5002713;28;20033;-93
2024/01/18 04:17:28;;;;;;;31.73;15.43;;;-2.70;99.90;;;;;;5011701;28;20030;-93
2024/01/18 04:19:53;;;;;;;27.75;15.40;;;-2.80;99.90;;;;;;5009352;28;20077;-93
2024/01/18 04:22:22;;;;;;;28.73;15.88;;;-2.90;99.90;;;;;;5008106;28;20378;-93
2024/01/18 04:24:48;;;;;;;29.95;15.57;;;-3.00;99.90;;;;;;5010396;28;20033;-92
2024/01/18 04:27:13;;;;;;;33.92;17.02;;;-3.00;99.90;;;;;;5008838;28;20030;-93
2024/01/18 04:29:39;;;;;;;33.85;16.67;;;-3.10;99.90;;;;;;5000855;28;20034;-93
2024/01/18 04:32:04;;;;;;;33.40;16.95;;;-3.20;99.90;;;;;;5011931;28;20038;-93
2024/01/18 04:34:30;;;;;;;31.15;15.30;;;-3.20;99.90;;;;;;5011765;28;20370;-94
2024/01/18 04:36:56;;;;;;;32.75;16.85;;;-3.20;99.90;;;;;;5011996;28;20113;-92
2024/01/18 04:39:21;;;;;;;30.63;15.20;;;-3.30;99.90;;;;;;5008657;28;20026;-92
2024/01/18 04:41:47;;;;;;;29.42;16.10;;;-3.30;99.90;;;;;;5011843;28;20041;-93
2024/01/18 04:44:13;;;;;;;35.30;16.63;;;-3.30;99.90;;;;;;5006474;28;20037;-93
2024/01/18 04:46:39;;;;;;;28.67;15.32;;;-3.40;99.90;;;;;;5015174;28;20029;-95
2024/01/18 04:49:04;;;;;;;35.33;16.80;;;-3.40;99.90;;;;;;5009651;28;20470;-94
2024/01/18 04:51:30;;;;;;;27.77;15.18;;;-3.40;99.90;;;;;;5015044;28;20076;-92
2024/01/18 04:53:55;;;;;;;32.67;16.25;;;-3.30;99.90;;;;;;5016449;28;20030;-93
2024/01/18 04:56:21;;;;;;;33.08;16.35;;;-3.40;99.90;;;;;;5007255;28;20097;-93
2024/01/18 04:58:47;;;;;;;37.88;16.83;;;-3.40;99.90;;;;;;5011460;28;20048;-94
2024/01/18 05:01:12;;;;;;;36.47;16.55;;;-3.40;99.90;;;;;;5015701;28;20033;-94
2024/01/18 05:03:38;;;;;;;31.48;15.85;;;-3.40;99.90;;;;;;5015063;28;20018;-93
2024/01/18 05:06:04;;;;;;;33.20;16.90;;;-3.40;99.90;;;;;;5014439;28;20030;-94
2024/01/18 05:08:29;;;;;;;33.08;17.98;;;-3.40;99.90;;;;;;5015482;28;20026;-93
2024/01/18 05:10:55;;;;;;;38.10;17.33;;;-3.50;99.90;;;;;;5007005;28;20029;-93
2024/01/18 05:13:21;;;;;;;30.20;15.70;;;-3.50;99.90;;;;;;5015197;28;20036;-94
2024/01/18 05:15:47;;;;;;;34.78;16.10;;;-3.60;99.90;;;;;;5006752;28;20030;-93
2024/01/18 05:18:14;;;;;;;33.20;16.70;;;-3.60;99.90;;;;;;5008186;28;20543;-92
2024/01/18 05:20:39;;;;;;;39.20;18.13;;;-3.50;99.90;;;;;;5005162;28;20093;-93
2024/01/18 05:23:06;;;;;;;32.97;16.73;;;-3.60;99.90;;;;;;5000052;28;20030;-94
2024/01/18 05:25:32;;;;;;;31.92;15.40;;;-3.60;99.90;;;;;;5009947;28;20084;-93
2024/01/18 05:27:59;;;;;;;30.50;16.38;;;-3.60;99.90;;;;;;5013292;28;20128;-93
2024/01/18 05:30:24;;;;;;;28.35;14.57;;;-3.70;99.90;;;;;;5003122;28;20939;-95
2024/01/18 05:32:50;;;;;;;35.53;14.85;;;-3.70;99.90;;;;;;5004462;28;20122;-94
2024/01/18 05:35:16;;;;;;;29.08;15.02;;;-3.70;99.90;;;;;;5010013;28;20025;-94
2024/01/18 05:37:41;;;;;;;32.08;17.42;;;-3.80;99.90;;;;;;5011629;28;20034;-95
2024/01/18 05:40:08;;;;;;;30.15;16.83;;;-3.80;99.90;;;;;;5004673;28;20076;-95
2024/01/18 05:42:34;;;;;;;41.03;16.77;;;-3.80;99.90;;;;;;5006508;28;20060;-95
2024/01/18 05:44:59;;;;;;;32.65;16.70;;;-3.80;99.90;;;;;;5014852;28;20038;-95
2024/01/18 05:47:25;;;;;;;31.90;16.02;;;-3.90;99.90;;;;;;5015700;28;20025;-95
2024/01/18 05:49:51;;;;;;;35.55;17.95;;;-3.90;99.90;;;;;;5006984;28;20022;-94
2024/01/18 05:52:17;;;;;;;36.10;17.90;;;-3.90;99.90;;;;;;5011632;28;20068;-95
2024/01/18 05:54:42;;;;;;;29.83;16.05;;;-3.90;99.90;;;;;;5007293;28;20108;-95
2024/01/18 05:57:08;;;;;;;31.92;17.05;;;-3.90;99.90;;;;;;5016551;28;20090;-95
2024/01/18 05:59:33;;;;;;;39.33;18.10;;;-3.90;99.90;;;;;;5014704;28;20531;-96
2024/01/18 06:01:59;;;;;;;39.55;20.02;;;-3.90;99.90;;;;;;5011087;28;20034;-95
2024/01/18 06:04:25;;;;;;;36.05;16.77;;;-3.80;99.90;;;;;;5013629;28;20108;-95
2024/01/18 06:06:52;;;;;;;32.15;18.02;;;-3.80;99.90;;;;;;5016212;28;20034;-95
2024/01/18 06:09:18;;;;;;;35.15;17.13;;;-3.70;99.90;;;;;;5016109;28;20408;-95
2024/01/18 06:11:48;;;;;;;37.88;18.38;;;-3.70;99.90;;;;;;5018051;28;20044;-96
2024/01/18 06:14:15;;;;;;;39.10;17.63;;;-3.70;99.90;;;;;;5014733;28;20533;-95
2024/01/18 06:16:41;;;;;;;35.47;18.13;;;-3.60;99.90;;;;;;5012986;28;20030;-94
2024/01/18 06:19:08;;;;;;;33.97;18.13;;;-3.60;99.90;;;;;;5014555;28;20030;-96
2024/01/18 06:21:34;;;;;;;39.58;18.63;;;-3.60;99.90;;;;;;5016779;28;20042;-96
2024/01/18 06:23:59;;;;;;;31.90;17.48;;;-3.60;99.90;;;;;;5009285;28;20107;-96
2024/01/18 06:26:26;;;;;;;31.95;16.10;;;-3.60;99.90;;;;;;5009168;28;20034;-94
2024/01/18 06:28:51;;;;;;;35.08;16.88;;;-3.60;99.90;;;;;;5016021;28;20022;-95
2024/01/18 06:31:19;;;;;;;33.33;16.20;;;-3.70;99.90;;;;;;5011570;28;20029;-94
2024/01/18 06:33:45;;;;;;;31.35;15.73;;;-3.70;99.90;;;;;;4997405;28;20030;-95
2024/01/18 06:36:14;;;;;;;31.38;15.40;;;-3.70;99.90;;;;;;4996005;28;20029;-95
2024/01/18 06:38:40;;;;;;;32.28;14.95;;;-3.70;99.90;;;;;;5016821;28;20108;-94
2024/01/18 06:41:06;;;;;;;26.20;13.25;;;-3.80;99.90;;;;;;5022788;28;20567;-96
2024/01/18 06:43:31;;;;;;;24.73;12.68;;;-3.80;99.90;;;;;;5013153;28;20032;-94
2024/01/18 06:45:57;;;;;;;31.88;14.85;;;-3.90;99.90;;;;;;5016264;28;20517;-94
2024/01/18 06:48:23;;;;;;;32.17;16.13;;;-4.00;99.90;;;;;;5016666;28;20034;-94
2024/01/18 06:50:50;;;;;;;34.38;16.45;;;-4.10;99.90;;;;;;5013199;28;20058;-95
2024/01/18 06:53:16;;;;;;;32.25;15.20;;;-4.10;99.90;;;;;;5017608;28;20042;-94
2024/01/18 06:55:41;;;;;;;28.52;14.80;;;-4.10;99.90;;;;;;5014515;28;20097;-94
2024/01/18 06:58:07;;;;;;;27.90;14.05;;;-4.20;99.90;;;;;;5021543;28;20041;-96
2024/01/18 07:00:33;;;;;;;35.67;14.88;;;-4.20;99.90;;;;;;5007542;28;20010;-96
2024/01/18 07:03:00;;;;;;;30.55;13.93;;;-4.20;99.90;;;;;;5024684;28;20035;-96
2024/01/18 07:05:27;;;;;;;29.85;13.88;;;-4.20;99.90;;;;;;5019580;28;20037;-96
2024/01/18 07:07:53;;;;;;;34.42;15.27;;;-4.30;99.90;;;;;;4996610;28;20027;-96
2024/01/18 07:10:20;;;;;;;29.35;14.43;;;-4.30;99.90;;;;;;5025966;28;20040;-96
2024/01/18 07:12:46;;;;;;;27.67;13.85;;;-4.40;99.90;;;;;;5028328;28;20022;-96
2024/01/18 07:15:51;;;;;;;33.28;16.58;;;-4.40;99.90;;;;;;5032659;28;20026;-96
2024/01/18 07:18:20;;;;;;;30.02;15.23;;;-4.40;99.90;;;;;;5019775;28;20034;-96
2024/01/18 07:20:47;;;;;;;27.02;14.30;;;-4.40;99.90;;;;;;5034487;28;20026;-96
2024/01/18 07:23:13;;;;;;;31.50;14.00;;;-4.40;99.90;;;;;;5032003;28;20037;-96
2024/01/18 07:25:39;;;;;;;30.13;15.45;;;-4.40;99.90;;;;;;5030657;28;20041;-96
2024/01/18 07:28:05;;;;;;;27.27;13.82;;;-4.40;99.90;;;;;;5033137;28;20034;-96
2024/01/18 07:30:30;;;;;;;28.80;15.30;;;-4.40;99.90;;;;;;5029300;28;20048;-96
2024/01/18 07:33:00;;;;;;;27.75;13.65;;;-4.40;99.90;;;;;;5029863;28;20064;-96
2024/01/18 07:35:25;;;;;;;72.57;15.88;;;-4.40;99.90;;;;;;5015012;28;20529;-96
2024/01/18 07:37:51;;;;;;;30.83;13.40;;;-4.40;99.90;;;;;;5031567;28;20022;-96
2024/01/18 07:40:19;;;;;;;25.85;13.38;;;-4.40;99.90;;;;;;5033200;28;20010;-96
2024/01/18 07:42:49;;;;;;;68.68;16.83;;;-4.40;99.90;;;;;;5049406;28;20061;-96
2024/01/18 07:45:16;;;;;;;64.38;15.98;;;-4.40;99.90;;;;;;5047953;28;20101;-95
2024/01/18 07:47:43;;;;;;;28.83;11.75;;;-4.40;99.90;;;;;;5028889;28;20049;-96
2024/01/18 07:50:09;;;;;;;25.77;13.30;;;-4.40;99.90;;;;;;5020390;28;20038;-96
2024/01/18 07:52:38;;;;;;;33.85;13.23;;;-4.40;99.90;;;;;;5028696;28;20033;-96
2024/01/18 07:55:06;;;;;;;30.70;12.40;;;-4.30;99.90;;;;;;5007887;28;20041;-95
2024/01/18 07:57:31;;;;;;;26.75;13.27;;;-4.40;99.90;;;;;;5022513;28;20034;-95
2024/01/18 07:59:58;;;;;;;22.77;11.18;;;-4.30;99.90;;;;;;5023696;28;20069;-96
2024/01/18 08:02:24;;;;;;;26.17;12.07;;;-4.30;99.90;;;;;;5019806;28;20042;-96
2024/01/18 08:04:50;;;;;;;21.10;11.60;;;-4.30;99.90;;;;;;5015876;28;20493;-96
2024/01/18 08:07:16;;;;;;;25.10;11.82;;;-4.20;99.90;;;;;;5025250;28;20038;-96
2024/01/18 08:09:41;;;;;;;25.15;12.20;;;-4.20;99.90;;;;;;5022639;28;20076;-96
2024/01/18 08:12:08;;;;;;;27.92;12.65;;;-4.20;99.90;;;;;;5003277;28;20038;-96
2024/01/18 08:14:41;;;;;;;29.00;14.70;;;-4.20;99.90;;;;;;5019047;28;20090;-95
2024/01/18 08:17:07;;;;;;;26.52;12.57;;;-4.20;99.90;;;;;;5022687;28;20088;-96
2024/01/18 08:19:33;;;;;;;48.30;14.35;;;-4.10;99.90;;;;;;5026267;28;20033;-95
2024/01/18 08:21:59;;;;;;;109.35;21.38;;;-4.00;99.90;;;;;;5011640;28;20034;-95
2024/01/18 08:24:25;;;;;;;33.60;14.20;;;-4.00;99.90;;;;;;5008305;28;20115;-95
2024/01/18 08:26:50;;;;;;;29.50;13.63;;;-3.90;99.90;;;;;;5015094;28;20393;-95
2024/01/18 08:29:16;;;;;;;28.45;12.95;;;-3.90;99.90;;;;;;5021359;28;20066;-94
2024/01/18 08:31:43;;;;;;;25.35;13.20;;;-3.80;99.90;;;;;;5018915;28;20072;-96
2024/01/18 08:34:09;;;;;;;32.10;14.30;;;-3.80;99.90;;;;;;5014035;28;20022;-95
2024/01/18 08:36:36;;;;;;;28.80;14.20;;;-3.70;99.90;;;;;;5012918;28;20033;-96
2024/01/18 08:39:03;;;;;;;30.63;13.68;;;-3.60;99.90;;;;;;5021992;28;20045;-96
2024/01/18 08:41:28;;;;;;;25.48;11.98;;;-3.60;99.90;;;;;;5008992;28;20041;-95
2024/01/18 08:43:54;;;;;;;25.92;12.43;;;-3.50;99.90;;;;;;5045585;23;20135;-74
2024/01/18 08:46:19;;;;;;;22.15;11.45;;;-3.40;99.90;;;;;;5069374;28;20043;-74
2024/01/18 08:48:45;;;;;;;25.90;12.13;;;-3.20;99.90;;;;;;5063820;28;20021;-73
2024/01/18 08:51:13;;;;;;;21.70;11.05;;;-3.10;99.90;;;;;;5072497;28;20055;-74
2024/01/18 08:53:43;;;;;;;23.15;10.68;;;-3.00;99.90;;;;;;5073096;28;20535;-73
2024/01/18 08:56:09;;;;;;;22.85;9.95;;;-2.90;99.90;;;;;;5071849;28;20074;-73
2024/01/18 08:58:36;;;;;;;20.92;9.75;;;-2.80;99.90;;;;;;5060057;28;20373;-74
2024/01/18 09:01:02;;;;;;;23.25;9.40;;;-2.70;99.90;;;;;;5069367;28;20074;-73
2024/01/18 09:03:28;;;;;;;24.63;10.48;;;-2.60;99.90;;;;;;5047237;28;20033;-73
2024/01/18 09:05:55;;;;;;;21.23;8.60;;;-2.40;99.90;;;;;;5041022;28;20048;-72
2024/01/18 09:08:20;;;;;;;20.20;8.93;;;-2.40;99.90;;;;;;5045079;28;20029;-73
2024/01/18 09:10:47;;;;;;;19.15;8.15;;;-2.20;99.90;;;;;;5035580;28;20022;-74
2024/01/18 09:13:13;;;;;;;18.10;8.30;;;-2.10;99.90;;;;;;5050558;28;20045;-73
2024/01/18 09:15:41;;;;;;;19.98;8.57;;;-2.10;99.90;;;;;;5046135;28;20044;-73
2024/01/18 09:18:09;;;;;;;18.98;8.98;;;-1.90;99.90;;;;;;5044286;28;20067;-75
2024/01/18 09:20:35;;;;;;;18.60;8.70;;;-1.90;99.90;;;;;;5041956;28;20021;-73
2024/01/18 09:23:01;;;;;;;20.52;8.65;;;-1.80;99.90;;;;;;5051950;28;20036;-73
2024/01/18 09:25:26;;;;;;;21.17;8.25;;;-1.70;99.90;;;;;;5032467;28;20025;-74
2024/01/18 09:27:52;;;;;;;22.92;9.30;;;-1.60;99.90;;;;;;5038594;28;20063;-74
2024/01/18 09:30:17;;;;;;;21.70;9.45;;;-1.50;99.90;;;;;;5046069;28;20021;-74
2024/01/18 09:32:44;;;;;;;19.33;8.63;;;-1.40;99.90;;;;;;5045202;28;20044;-74
2024/01/18 09:35:10;;;;;;;19.63;9.02;;;-1.30;99.90;;;;;;5039748;28;20029;-73
2024/01/18 09:37:36;;;;;;;17.75;9.68;;;-1.30;99.90;;;;;;5041623;28;20071;-73
2024/01/18 09:40:02;;;;;;;16.25;7.93;;;-1.20;99.90;;;;;;5032617;28;20030;-73
2024/01/18 09:42:42;;;;;;;17.73;8.43;;;-1.00;99.90;;;;;;5055059;28;20111;-73
2024/01/18 09:45:12;;;;;;;18.95;8.32;;;-0.90;99.90;;;;;;5042658;28;20034;-73
2024/01/18 09:47:38;;;;;;;16.95;8.00;;;-0.90;99.90;;;;;;5033297;28;20029;-74
2024/01/18 09:50:04;;;;;;;25.15;8.88;;;-0.80;99.90;;;;;;5042684;28;20033;-73
2024/01/18 09:52:30;;;;;;;17.02;8.30;;;-0.70;99.90;;;;;;5045849;28;20120;-74
2024/01/18 09:54:55;;;;;;;13.43;7.70;;;-0.70;99.90;;;;;;5034544;28;20104;-74
2024/01/18 09:57:32;;;;;;;14.43;7.00;;;-0.60;99.90;;;;;;5041446;28;20067;-74
2024/01/18 10:00:00;;;;;;;14.73;7.18;;;-0.50;99.90;;;;;;5033175;28;20048;-74
2024/01/18 10:02:29;;;;;;;13.10;7.38;;;-0.40;99.90;;;;;;5040686;28;20103;-74
2024/01/18 10:05:00;;;;;;;18.25;7.32;;;-0.30;99.90;;;;;;5042852;28;20036;-74
2024/01/18 10:07:29;;;;;;;11.50;5.53;;;-0.30;99.90;;;;;;5038461;28;20159;-73
2024/01/18 10:09:55;;;;;;;13.48;6.57;;;-0.10;99.90;;;;;;5057275;28;20022;-74
2024/01/18 10:12:20;;;;;;;12.00;6.30;;;-0.10;99.90;;;;;;5034262;28;20503;-74
2024/01/18 10:14:46;;;;;;;11.90;6.80;;;0.00;99.90;;;;;;5050155;28;20025;-73
2024/01/18 10:17:21;;;;;;;11.88;6.00;;;0.20;99.90;;;;;;5040542;28;20021;-74
2024/01/18 10:19:50;;;;;;;9.80;5.47;;;0.30;99.90;;;;;;5058628;28;20020;-74
2024/01/18 10:22:18;;;;;;;12.60;5.38;;;0.40;99.90;;;;;;5047419;28;20029;-74
2024/01/18 10:24:44;;;;;;;10.05;4.10;;;0.40;99.90;;;;;;5055590;28;20029;-74
2024/01/18 10:27:11;;;;;;;10.77;4.35;;;0.50;99.90;;;;;;5042053;28;20036;-74
2024/01/18 10:29:37;;;;;;;7.43;3.40;;;0.60;99.90;;;;;;5050185;28;20060;-74
2024/01/18 10:32:06;;;;;;;8.13;3.22;;;0.60;99.90;;;;;;5033473;28;20033;-73
2024/01/18 10:34:39;;;;;;;8.43;3.35;;;0.70;99.90;;;;;;5035277;28;20033;-74
2024/01/18 10:37:05;;;;;;;8.00;3.35;;;0.80;99.90;;;;;;5056313;28;20086;-74
2024/01/18 10:39:39;;;;;;;7.05;3.80;;;0.80;99.90;;;;;;5047159;28;20037;-74
2024/01/18 10:42:07;;;;;;;8.40;2.83;;;0.90;99.90;;;;;;5034438;28;20025;-74
2024/01/18 10:44:37;;;;;;;11.10;3.72;;;1.00;99.90;;;;;;5035027;28;20030;-74
2024/01/18 10:47:10;;;;;;;9.13;3.65;;;1.00;99.90;;;;;;5050005;28;20082;-74
2024/01/18 10:49:36;;;;;;;8.43;3.95;;;1.10;99.90;;;;;;5031232;28;20415;-74
2024/01/18 10:52:03;;;;;;;8.52;3.72;;;1.10;99.90;;;;;;5039881;28;20047;-74
2024/01/18 10:54:31;;;;;;;8.40;3.38;;;1.20;99.90;;;;;;5035407;28;20022;-73
2024/01/18 10:57:00;;;;;;;8.07;3.88;;;1.20;99.90;;;;;;5032281;28;20076;-73
2024/01/18 10:59:29;;;;;;;16.08;3.88;;;1.20;99.90;;;;;;5053673;28;20100;-74
2024/01/18 11:01:59;;;;;;;11.85;4.20;;;1.30;99.90;;;;;;5032066;28;20032;-74
2024/01/18 11:04:30;;;;;;;9.30;4.00;;;1.30;99.90;;;;;;5046302;28;20028;-73
2024/01/18 11:06:57;;;;;;;9.90;4.03;;;1.40;99.90;;;;;;5046067;28;20025;-73
2024/01/18 11:09:29;;;;;;;5.22;3.35;;;1.40;99.90;;;;;;5039218;28;20018;-73
2024/01/18 11:11:56;;;;;;;4.83;2.80;;;1.50;99.90;;;;;;5037964;28;20484;-73
2024/01/18 11:14:22;;;;;;;6.88;3.45;;;1.60;99.90;;;;;;5041566;28;20338;-73
2024/01/18 11:16:48;;;;;;;15.25;3.60;;;1.60;99.90;;;;;;5048638;28;20027;-74
2024/01/18 11:19:37;;;;;;;12.02;3.38;;;1.70;99.90;;;;;;5064109;28;20029;-74
2024/01/18 11:22:03;;;;;;;9.10;2.90;;;1.80;99.90;;;;;;5036709;28;20072;-74
2024/01/18 11:24:28;;;;;;;4.28;2.35;;;1.90;99.90;;;;;;5039208;28;20052;-74
2024/01/18 11:26:57;;;;;;;6.72;2.53;;;1.90;99.90;;;;;;5048298;28;20033;-73
2024/01/18 11:29:25;;;;;;;8.20;2.40;;;2.00;99.90;;;;;;5052273;28;20021;-73
2024/01/18 11:31:51;;;;;;;5.82;1.90;;;2.10;99.90;;;;;;5035054;28;20047;-74
2024/01/18 11:34:31;;;;;;;6.53;1.88;;;2.10;99.90;;;;;;5042708;28;20021;-73
2024/01/18 11:37:11;;;;;;;7.28;1.80;;;2.20;99.90;;;;;;5049722;28;20025;-73
2024/01/18 11:39:53;;;;;;;6.72;2.03;;;2.30;99.90;;;;;;5055652;28;20059;-74
2024/01/18 11:42:30;;;;;;;4.40;1.87;;;2.30;99.90;;;;;;5036088;28;20037;-73
2024/01/18 11:45:08;;;;;;;3.80;1.42;;;2.40;99.90;;;;;;5050463;28;20527;-73
2024/01/18 11:47:35;;;;;;;3.85;1.45;;;2.40;99.90;;;;;;5042903;28;20025;-73
2024/01/18 11:50:11;;;;;;;5.78;1.77;;;2.50;99.90;;;;;;5045827;28;20021;-73
2024/01/18 11:52:41;;;;;;;4.70;1.35;;;2.60;99.90;;;;;;5043658;28;20029;-74
2024/01/18 11:55:08;;;;;;;5.00;1.60;;;2.60;99.90;;;;;;5045713;28;20047;-74
2024/01/18 11:57:34;;;;;;;6.97;1.80;;;2.70;99.90;;;;;;5045777;28;20032;-74
2024/01/18 12:00:00;;;;;;;3.03;1.40;;;2.70;99.90;;;;;;5046351;28;20025;-74
2024/01/18 12:02:30;;;;;;;2.95;0.90;;;2.80;99.90;;;;;;5048343;28;20033;-74
2024/01/18 12:04:56;;;;;;;8.40;1.45;;;2.90;99.90;;;;;;5046469;28;20017;-74
2024/01/18 12:07:25;;;;;;;5.97;1.20;;;3.00;99.90;;;;;;5046880;28;20032;-73
2024/01/18 12:09:50;;;;;;;9.00;1.30;;;2.90;99.90;;;;;;5043740;28;20468;-74
2024/01/18 12:12:17;;;;;;;6.47;1.20;;;2.90;99.90;;;;;;5042941;28;20049;-73
2024/01/18 12:14:44;;;;;;;8.93;0.88;;;2.80;99.90;;;;;;5036770;28;20435;-74
2024/01/18 12:17:11;;;;;;;5.50;0.60;;;2.60;99.90;;;;;;5031759;28;20056;-73
2024/01/18 12:19:38;;;;;;;4.35;0.73;;;2.50;99.90;;;;;;5036948;28;20105;-73
2024/01/18 12:22:12;;;;;;;4.38;1.05;;;2.50;99.90;;;;;;5037151;28;20392;-73
2024/01/18 12:24:39;;;;;;;3.53;0.70;;;2.50;99.90;;;;;;5041348;28;20029;-73
2024/01/18 12:27:05;;;;;;;3.58;0.55;;;2.60;99.90;;;;;;5037361;28;20033;-73
2024/01/18 12:29:32;;;;;;;4.22;0.60;;;2.60;99.90;;;;;;5037121;28;20061;-74
2024/01/18 12:31:59;;;;;;;6.05;0.40;;;2.70;99.90;;;;;;5035924;28;20104;-73